Time;durP1;ratioP1;P1;durP2;ratioP2;P2;SDS_P1;SDS_P2;PMS_P1;PMS_P2;Temp;Humidity;BMP_temperature;BMP_pressure;BME280_temperature;BME280_humidity;BME280_pressure;Samples;Min_cycle;Max_cycle;Signal;HPM_P1;HPM_P2
2023/07/31 00:04:49;;;;;;;16.45;14.85;;;;;;;;;;10226064;28;20046;-73
2023/07/31 00:15:07;;;;;;;16.02;14.80;;;;;;;;;;10195691;28;20054;-73
2023/07/31 00:25:54;;;;;;;15.80;14.27;;;;;;;;;;10298483;23;20049;-73
2023/07/31 00:30:50;;;;;;;15.73;14.43;;;;;;;;;;10194900;28;20084;-73
2023/07/31 00:35:47;;;;;;;15.77;14.40;;;;;;;;;;10216529;28;20403;-73
2023/07/31 00:41:13;;;;;;;17.83;16.50;;;;;;;;;;10274806;22;20060;-73
2023/07/31 00:46:34;;;;;;;15.82;14.63;;;;;;;;;;10192024;28;20038;-73
2023/07/31 01:08:42;;;;;;;14.07;12.82;;;;;;;;;;11116148;23;20053;-72
2023/07/31 01:13:38;;;;;;;;;;;;;;;;;;10237505;28;20045;-73
2023/07/31 01:18:35;;;;;;;15.50;14.10;;;;;;;;;;10235690;28;20352;-71
2023/07/31 01:23:38;;;;;;;13.00;11.75;;;;;;;;;;10236296;28;20059;-72
2023/07/31 01:28:54;;;;;;;13.15;12.15;;;;;;;;;;10196429;28;20053;-72
2023/07/31 01:33:52;;;;;;;13.02;11.75;;;;;;;;;;10210294;28;20087;-72
2023/07/31 01:38:50;;;;;;;11.07;9.50;;;;;;;;;;10289108;23;20045;-72
2023/07/31 01:43:46;;;;;;;14.32;10.25;;;;;;;;;;10202075;28;20046;-72
2023/07/31 01:48:42;;;;;;;9.00;8.02;;;;;;;;;;10235756;28;20533;-72
2023/07/31 01:53:39;;;;;;;12.00;9.55;;;;;;;;;;10211929;28;20213;-72
2023/07/31 01:58:35;;;;;;;11.25;10.20;;;;;;;;;;10235613;28;20041;-72
2023/07/31 02:03:31;;;;;;;10.70;9.90;;;;;;;;;;10202268;28;20045;-72
2023/07/31 02:08:28;;;;;;;11.48;9.10;;;;;;;;;;10229648;28;20065;-72
2023/07/31 02:13:24;;;;;;;14.02;9.38;;;;;;;;;;10198043;28;20057;-72
2023/07/31 02:18:22;;;;;;;10.60;9.57;;;;;;;;;;10412631;23;20678;-71
2023/07/31 02:23:18;;;;;;;10.02;9.02;;;;;;;;;;10214115;28;20099;-72
2023/07/31 02:33:26;;;;;;;9.82;9.02;;;;;;;;;;2771205;26;20494;-71
2023/07/31 02:38:23;;;;;;;11.38;10.38;;;;;;;;;;10244482;28;20084;-73
2023/07/31 02:43:19;;;;;;;9.45;8.65;;;;;;;;;;10232893;28;20061;-72
2023/07/31 02:48:16;;;;;;;10.07;9.02;;;;;;;;;;10193678;28;20053;-71
2023/07/31 02:53:12;;;;;;;9.65;8.65;;;;;;;;;;10195927;28;20431;-71
2023/07/31 02:58:08;;;;;;;12.13;9.80;;;;;;;;;;10233741;28;20045;-72
2023/07/31 03:03:04;;;;;;;14.27;9.77;;;;;;;;;;10207643;28;20473;-72
2023/07/31 03:08:26;;;;;;;9.77;9.02;;;;;;;;;;10303392;23;20053;-72
2023/07/31 03:13:22;;;;;;;11.48;9.90;;;;;;;;;;10202930;28;20049;-72
2023/07/31 03:18:19;;;;;;;10.90;9.93;;;;;;;;;;10202011;28;20086;-72
2023/07/31 03:23:15;;;;;;;11.13;10.13;;;;;;;;;;10203119;28;20062;-72
2023/07/31 03:28:11;;;;;;;11.07;9.98;;;;;;;;;;10228688;28;20057;-72
2023/07/31 03:33:08;;;;;;;11.43;10.30;;;;;;;;;;10202054;28;20539;-72
2023/07/31 03:38:04;;;;;;;10.35;9.45;;;;;;;;;;10224937;28;20058;-72
2023/07/31 03:43:00;;;;;;;9.82;8.93;;;;;;;;;;10201163;28;20050;-71
2023/07/31 03:47:57;;;;;;;10.10;9.10;;;;;;;;;;10213062;28;20054;-72
2023/07/31 03:52:53;;;;;;;11.55;10.25;;;;;;;;;;10200666;28;20049;-72
2023/07/31 03:57:49;;;;;;;11.15;9.85;;;;;;;;;;10186879;28;20104;-72
2023/07/31 04:02:46;;;;;;;10.20;9.35;;;;;;;;;;10200237;28;20050;-72
2023/07/31 04:07:42;;;;;;;10.48;9.55;;;;;;;;;;10220245;28;20514;-71
2023/07/31 04:12:38;;;;;;;9.90;9.00;;;;;;;;;;10226387;28;20057;-72
2023/07/31 04:17:35;;;;;;;11.32;10.27;;;;;;;;;;10235762;28;20057;-71
2023/07/31 04:22:31;;;;;;;11.13;10.23;;;;;;;;;;10219477;28;20050;-72
2023/07/31 04:27:27;;;;;;;10.50;9.55;;;;;;;;;;10235032;28;20049;-72
2023/07/31 04:32:24;;;;;;;10.75;9.95;;;;;;;;;;10207407;28;20046;-73
2023/07/31 04:37:20;;;;;;;11.93;11.13;;;;;;;;;;10233700;28;20136;-72
2023/07/31 04:42:16;;;;;;;13.23;11.77;;;;;;;;;;10200061;28;20120;-71
2023/07/31 04:52:18;;;;;;;12.93;12.02;;;;;;;;;;9822264;26;20606;-71
2023/07/31 04:57:14;;;;;;;12.95;11.95;;;;;;;;;;10212608;28;20061;-72
2023/07/31 05:02:11;;;;;;;13.52;12.50;;;;;;;;;;10158063;28;20103;-72
2023/07/31 05:07:08;;;;;;;14.35;13.35;;;;;;;;;;10170086;28;20050;-72
2023/07/31 05:12:05;;;;;;;14.63;13.52;;;;;;;;;;10158090;28;20102;-73
2023/07/31 05:17:01;;;;;;;13.55;12.73;;;;;;;;;;10200915;28;20081;-72
2023/07/31 05:21:57;;;;;;;13.75;12.75;;;;;;;;;;10197426;28;20463;-72
2023/07/31 05:26:54;;;;;;;12.57;11.68;;;;;;;;;;10204048;28;20053;-72
2023/07/31 05:31:50;;;;;;;13.80;12.85;;;;;;;;;;10197062;28;20054;-73
2023/07/31 05:36:46;;;;;;;14.90;13.80;;;;;;;;;;10216447;28;20057;-72
2023/07/31 05:41:43;;;;;;;14.48;13.57;;;;;;;;;;10234149;28;20104;-72
2023/07/31 05:46:39;;;;;;;14.43;13.52;;;;;;;;;;10225119;28;20053;-71
2023/07/31 05:51:35;;;;;;;12.82;11.98;;;;;;;;;;10206373;28;20054;-72
2023/07/31 05:56:33;;;;;;;14.10;13.20;;;;;;;;;;10211981;28;20531;-72
2023/07/31 06:01:30;;;;;;;14.32;13.40;;;;;;;;;;10210808;28;20073;-72
2023/07/31 06:06:26;;;;;;;13.95;12.95;;;;;;;;;;10205481;28;20766;-72
2023/07/31 06:11:23;;;;;;;13.43;12.52;;;;;;;;;;10160580;28;20467;-72
2023/07/31 06:16:19;;;;;;;15.13;14.13;;;;;;;;;;10207768;28;20538;-71
2023/07/31 06:21:15;;;;;;;14.82;13.93;;;;;;;;;;10170540;28;20582;-72
2023/07/31 06:26:12;;;;;;;14.68;13.68;;;;;;;;;;10188676;28;20054;-73
2023/07/31 06:31:08;;;;;;;13.52;12.63;;;;;;;;;;10201091;28;20092;-73
2023/07/31 06:36:05;;;;;;;13.20;12.40;;;;;;;;;;10211960;28;20085;-72
2023/07/31 06:41:01;;;;;;;14.02;13.07;;;;;;;;;;10154264;28;20061;-72
2023/07/31 06:46:03;;;;;;;14.05;13.15;;;;;;;;;;10184031;28;20066;-72
2023/07/31 06:51:00;;;;;;;14.07;13.18;;;;;;;;;;10154228;28;20050;-73
2023/07/31 07:01:08;;;;;;;14.52;13.63;;;;;;;;;;8420047;26;20498;-73
2023/07/31 07:06:05;;;;;;;13.43;12.57;;;;;;;;;;10209441;28;20050;-72
2023/07/31 07:11:01;;;;;;;14.27;13.32;;;;;;;;;;10192708;28;20053;-73
2023/07/31 07:15:57;;;;;;;13.82;12.98;;;;;;;;;;10220763;28;20051;-72
2023/07/31 07:20:54;;;;;;;14.57;13.40;;;;;;;;;;10233694;28;20103;-72
2023/07/31 07:25:51;;;;;;;13.65;12.75;;;;;;;;;;10223075;28;20053;-73
2023/07/31 07:30:51;;;;;;;13.75;12.95;;;;;;;;;;10223192;28;20048;-73
2023/07/31 07:35:47;;;;;;;13.00;12.13;;;;;;;;;;10214624;28;20120;-73
2023/07/31 07:40:44;;;;;;;13.90;13.00;;;;;;;;;;10203851;28;20124;-73
2023/07/31 07:45:41;;;;;;;14.15;13.15;;;;;;;;;;10213728;28;20080;-73
2023/07/31 07:50:38;;;;;;;13.38;12.48;;;;;;;;;;10191379;28;20462;-73
2023/07/31 07:55:35;;;;;;;13.32;12.52;;;;;;;;;;10206992;28;20455;-73
2023/07/31 08:00:31;;;;;;;12.77;11.85;;;;;;;;;;10192808;28;20053;-73
2023/07/31 08:05:28;;;;;;;14.10;13.10;;;;;;;;;;10214672;28;20076;-73
2023/07/31 08:10:28;;;;;;;14.10;12.98;;;;;;;;;;10239444;28;20611;-73
2023/07/31 08:15:24;;;;;;;14.55;13.65;;;;;;;;;;10217294;28;20055;-72
2023/07/31 08:20:21;;;;;;;14.85;13.85;;;;;;;;;;10235728;28;20109;-73
2023/07/31 08:25:17;;;;;;;14.65;13.73;;;;;;;;;;10216629;28;20049;-73
2023/07/31 08:30:13;;;;;;;15.00;13.93;;;;;;;;;;10225489;28;20052;-73
2023/07/31 08:35:10;;;;;;;14.23;13.43;;;;;;;;;;10215427;28;20045;-73
2023/07/31 08:40:06;;;;;;;14.27;13.35;;;;;;;;;;10204478;28;20050;-73
2023/07/31 08:45:03;;;;;;;13.50;12.70;;;;;;;;;;10214198;28;20519;-73
2023/07/31 08:50:00;;;;;;;13.75;12.75;;;;;;;;;;10198871;28;20499;-73
2023/07/31 08:54:56;;;;;;;14.75;13.75;;;;;;;;;;10211894;28;20045;-73
2023/07/31 08:59:54;;;;;;;14.35;13.45;;;;;;;;;;10220519;28;20108;-73
2023/07/31 09:04:50;;;;;;;14.93;13.93;;;;;;;;;;10224151;28;20057;-74
2023/07/31 09:09:47;;;;;;;14.13;13.32;;;;;;;;;;10237873;28;20057;-73
2023/07/31 09:14:45;;;;;;;16.80;15.65;;;;;;;;;;10210575;28;20576;-73
2023/07/31 09:19:44;;;;;;;16.05;14.95;;;;;;;;;;10236744;22;20057;-73
2023/07/31 09:24:46;;;;;;;14.82;13.82;;;;;;;;;;10182483;28;20403;-73
2023/07/31 09:29:42;;;;;;;14.82;13.93;;;;;;;;;;10237087;28;20107;-73
2023/07/31 09:34:39;;;;;;;15.20;14.32;;;;;;;;;;10197124;28;20690;-73
2023/07/31 09:39:58;;;;;;;15.43;14.52;;;;;;;;;;10235773;28;20099;-73
2023/07/31 09:45:06;;;;;;;16.60;15.60;;;;;;;;;;10156138;28;20066;-73
2023/07/31 09:50:07;;;;;;;14.65;13.65;;;;;;;;;;10155710;28;20444;-73
2023/07/31 09:55:03;;;;;;;15.82;14.82;;;;;;;;;;10188109;28;20057;-73
2023/07/31 10:00:00;;;;;;;15.55;14.65;;;;;;;;;;10179023;28;20058;-73
2023/07/31 10:04:58;;;;;;;15.50;14.50;;;;;;;;;;10185568;28;20045;-73
2023/07/31 10:09:55;;;;;;;15.85;14.85;;;;;;;;;;10173722;28;20054;-73
2023/07/31 10:14:52;;;;;;;16.77;15.68;;;;;;;;;;10166156;28;20055;-73
2023/07/31 10:19:53;;;;;;;15.73;14.73;;;;;;;;;;10155764;28;20058;-73
2023/07/31 10:24:50;;;;;;;17.67;16.48;;;;;;;;;;10182623;28;20132;-73
2023/07/31 10:29:47;;;;;;;17.38;16.25;;;;;;;;;;10221033;28;20133;-73
2023/07/31 10:34:44;;;;;;;16.63;15.43;;;;;;;;;;10181665;28;20050;-73
2023/07/31 10:39:40;;;;;;;17.98;16.88;;;;;;;;;;10212419;28;20081;-73
2023/07/31 10:44:37;;;;;;;16.17;15.10;;;;;;;;;;10179229;28;20045;-73
2023/07/31 10:49:33;;;;;;;14.57;13.60;;;;;;;;;;10192034;28;20054;-73
2023/07/31 10:54:29;;;;;;;16.98;15.63;;;;;;;;;;10177137;28;20108;-74
2023/07/31 10:59:28;;;;;;;16.85;15.85;;;;;;;;;;10190393;28;20047;-73
2023/07/31 11:04:25;;;;;;;15.00;14.10;;;;;;;;;;10174290;28;20049;-73
2023/07/31 11:09:21;;;;;;;15.93;15.02;;;;;;;;;;10185425;28;20054;-73
2023/07/31 11:14:17;;;;;;;17.10;16.10;;;;;;;;;;10173488;28;20057;-73
2023/07/31 11:19:14;;;;;;;17.92;16.90;;;;;;;;;;10159036;28;20057;-73
2023/07/31 11:24:12;;;;;;;17.08;15.77;;;;;;;;;;10171608;28;20045;-73
2023/07/31 11:34:49;;;;;;;17.30;15.98;;;;;;;;;;10195136;23;20054;-73
2023/07/31 11:46:16;;;;;;;16.85;15.75;;;;;;;;;;10209962;22;20096;-73
2023/07/31 11:51:13;;;;;;;15.57;14.23;;;;;;;;;;10157886;28;20054;-73
2023/07/31 11:56:14;;;;;;;14.15;13.25;;;;;;;;;;10157421;28;20056;-73
2023/07/31 12:01:10;;;;;;;14.02;13.13;;;;;;;;;;10120844;28;20134;-73
2023/07/31 12:06:07;;;;;;;13.85;13.05;;;;;;;;;;10152635;28;20136;-73
2023/07/31 12:11:06;;;;;;;13.48;12.68;;;;;;;;;;10160462;28;20054;-73
2023/07/31 12:16:03;;;;;;;14.00;13.13;;;;;;;;;;10163135;28;20053;-73
2023/07/31 12:21:01;;;;;;;14.15;13.32;;;;;;;;;;10131429;28;20436;-73
2023/07/31 12:26:04;;;;;;;13.23;12.43;;;;;;;;;;10166258;28;20054;-73
2023/07/31 12:31:00;;;;;;;13.80;13.00;;;;;;;;;;10167195;28;20109;-73
2023/07/31 12:36:04;;;;;;;14.65;13.65;;;;;;;;;;10166200;28;20099;-73
2023/07/31 12:41:00;;;;;;;13.20;12.30;;;;;;;;;;10158369;28;20081;-73
2023/07/31 12:45:56;;;;;;;14.38;13.48;;;;;;;;;;10164657;28;20054;-73
2023/07/31 12:50:53;;;;;;;15.60;14.60;;;;;;;;;;10170750;28;20468;-73
2023/07/31 12:55:49;;;;;;;14.82;13.88;;;;;;;;;;10163604;28;20045;-73
2023/07/31 13:00:46;;;;;;;15.05;14.07;;;;;;;;;;10157317;28;20051;-73
2023/07/31 13:05:42;;;;;;;13.98;13.18;;;;;;;;;;10160516;28;20053;-73
2023/07/31 13:10:39;;;;;;;16.85;15.75;;;;;;;;;;10119129;28;20515;-73
2023/07/31 13:15:35;;;;;;;15.60;14.43;;;;;;;;;;10143193;28;20102;-73
2023/07/31 13:20:31;;;;;;;14.38;13.48;;;;;;;;;;10297789;23;20058;-73
2023/07/31 13:25:28;;;;;;;14.77;13.98;;;;;;;;;;10207510;28;20054;-73
2023/07/31 13:30:24;;;;;;;13.25;12.40;;;;;;;;;;10197241;28;20408;-73
2023/07/31 13:35:20;;;;;;;14.13;13.13;;;;;;;;;;10204437;28;20104;-73
2023/07/31 13:40:17;;;;;;;14.77;13.43;;;;;;;;;;10237517;23;20058;-73
2023/07/31 13:45:13;;;;;;;13.23;12.50;;;;;;;;;;10224321;28;20513;-73
2023/07/31 13:50:10;;;;;;;13.95;13.15;;;;;;;;;;10230021;28;20119;-73
2023/07/31 13:55:06;;;;;;;14.77;13.88;;;;;;;;;;10213353;28;20509;-73
2023/07/31 14:00:03;;;;;;;14.05;13.20;;;;;;;;;;10217097;28;20054;-73
2023/07/31 14:04:59;;;;;;;13.98;13.18;;;;;;;;;;10212025;28;20049;-72
2023/07/31 14:09:55;;;;;;;13.77;12.77;;;;;;;;;;10216164;28;20050;-73
2023/07/31 14:14:52;;;;;;;14.18;13.20;;;;;;;;;;10192646;28;20506;-73
2023/07/31 14:20:08;;;;;;;13.93;13.13;;;;;;;;;;10219348;23;20148;-72
2023/07/31 14:25:05;;;;;;;13.90;12.90;;;;;;;;;;10211150;28;20088;-73
2023/07/31 14:30:02;;;;;;;13.82;12.93;;;;;;;;;;10170051;28;20050;-73
2023/07/31 14:34:58;;;;;;;13.27;12.48;;;;;;;;;;10165138;28;20050;-73
2023/07/31 14:39:56;;;;;;;13.73;12.85;;;;;;;;;;10296638;23;20054;-73
2023/07/31 14:44:52;;;;;;;14.13;13.13;;;;;;;;;;10194879;28;20530;-72
2023/07/31 14:49:48;;;;;;;12.68;11.68;;;;;;;;;;10234140;28;20515;-72
2023/07/31 14:54:44;;;;;;;11.40;10.70;;;;;;;;;;10191861;28;20111;-71
2023/07/31 14:59:41;;;;;;;11.02;10.23;;;;;;;;;;10234229;28;20046;-71
2023/07/31 15:04:37;;;;;;;11.07;10.18;;;;;;;;;;10173604;28;20049;-72
2023/07/31 15:09:34;;;;;;;10.93;9.93;;;;;;;;;;10233704;28;20061;-72
2023/07/31 15:14:31;;;;;;;13.00;10.65;;;;;;;;;;10183306;28;20111;-71
2023/07/31 15:19:29;;;;;;;10.70;9.88;;;;;;;;;;10250380;22;20449;-71
2023/07/31 15:24:25;;;;;;;9.60;8.82;;;;;;;;;;10222328;28;20056;-73
2023/07/31 15:29:21;;;;;;;9.63;8.93;;;;;;;;;;10256030;28;20424;-71
2023/07/31 15:34:18;;;;;;;9.88;9.18;;;;;;;;;;10221317;28;20088;-71
2023/07/31 15:39:16;;;;;;;10.10;9.18;;;;;;;;;;10255578;28;20061;-71
2023/07/31 15:44:13;;;;;;;8.95;8.25;;;;;;;;;;10219779;28;20403;-71
2023/07/31 15:49:10;;;;;;;9.35;8.65;;;;;;;;;;10256902;28;20412;-71
2023/07/31 15:54:06;;;;;;;10.35;7.82;;;;;;;;;;10249421;28;20056;-71
2023/07/31 15:59:02;;;;;;;10.38;7.85;;;;;;;;;;10245387;23;20511;-71
2023/07/31 16:03:59;;;;;;;8.98;8.18;;;;;;;;;;10233487;28;20050;-71
2023/07/31 16:08:55;;;;;;;8.77;8.05;;;;;;;;;;10199954;28;20527;-71
2023/07/31 16:13:51;;;;;;;8.93;8.13;;;;;;;;;;10206059;28;20049;-71
2023/07/31 16:18:48;;;;;;;10.00;9.20;;;;;;;;;;10235913;28;20042;-71
2023/07/31 16:23:44;;;;;;;10.27;9.43;;;;;;;;;;10187496;28;20459;-71
2023/07/31 16:28:40;;;;;;;7.63;7.00;;;;;;;;;;10237977;28;20056;-71
2023/07/31 16:33:37;;;;;;;7.65;7.07;;;;;;;;;;10201932;28;20794;-72
2023/07/31 16:38:36;;;;;;;8.05;7.35;;;;;;;;;;10220460;28;20067;-71
2023/07/31 16:43:32;;;;;;;9.70;8.80;;;;;;;;;;10202811;28;20053;-72
2023/07/31 16:48:29;;;;;;;22.13;7.30;;;;;;;;;;10238540;28;20198;-72
2023/07/31 16:53:25;;;;;;;8.32;7.55;;;;;;;;;;10202833;28;20060;-72
2023/07/31 16:58:21;;;;;;;8.13;7.25;;;;;;;;;;10229564;28;20052;-72
2023/07/31 17:03:18;;;;;;;9.48;8.60;;;;;;;;;;10200340;28;20407;-73
2023/07/31 17:08:18;;;;;;;8.52;7.70;;;;;;;;;;10219394;28;20136;-72
2023/07/31 17:13:14;;;;;;;7.85;7.25;;;;;;;;;;10199013;28;20061;-73
2023/07/31 17:18:10;;;;;;;7.63;7.03;;;;;;;;;;10234174;23;20112;-72
2023/07/31 17:23:07;;;;;;;7.70;7.10;;;;;;;;;;10211808;28;20053;-72
2023/07/31 17:28:03;;;;;;;7.68;6.97;;;;;;;;;;10195711;28;20046;-72
2023/07/31 17:32:59;;;;;;;8.38;7.70;;;;;;;;;;10196954;28;20057;-72
2023/07/31 17:37:56;;;;;;;8.95;8.25;;;;;;;;;;10213378;28;20053;-72
2023/07/31 17:42:54;;;;;;;9.07;8.38;;;;;;;;;;10196457;28;20105;-72
2023/07/31 17:47:56;;;;;;;10.18;9.27;;;;;;;;;;10355501;22;20049;-72
2023/07/31 17:52:53;;;;;;;;;;;;;;;;;;10161070;28;20050;-72
2023/07/31 17:57:49;;;;;;;11.15;10.25;;;;;;;;;;10233090;28;19921;-72
2023/07/31 18:02:45;;;;;;;12.52;11.35;;;;;;;;;;10205638;28;20064;-72
2023/07/31 18:07:42;;;;;;;11.60;10.70;;;;;;;;;;10232914;28;20103;-72
2023/07/31 18:12:38;;;;;;;11.60;10.70;;;;;;;;;;10203255;28;20054;-72
2023/07/31 18:17:34;;;;;;;11.50;10.52;;;;;;;;;;10380445;22;20061;-72
2023/07/31 18:22:31;;;;;;;11.40;10.32;;;;;;;;;;10189090;28;20046;-72
2023/07/31 18:27:27;;;;;;;11.65;10.63;;;;;;;;;;10194431;28;20077;-72
2023/07/31 18:32:23;;;;;;;15.88;9.48;;;;;;;;;;10193910;28;20061;-72
2023/07/31 18:37:20;;;;;;;10.18;9.27;;;;;;;;;;10228456;28;20079;-72
2023/07/31 18:42:16;;;;;;;12.25;11.15;;;;;;;;;;10167345;28;20109;-72
2023/07/31 18:47:12;;;;;;;11.63;10.52;;;;;;;;;;10208457;28;20522;-72
2023/07/31 18:52:08;;;;;;;12.10;11.05;;;;;;;;;;10176756;28;20073;-72
2023/07/31 18:57:05;;;;;;;11.60;10.60;;;;;;;;;;10182366;28;20078;-72
2023/07/31 19:02:01;;;;;;;11.18;10.27;;;;;;;;;;10153936;28;20117;-72
2023/07/31 19:06:58;;;;;;;12.60;11.50;;;;;;;;;;10216602;28;20071;-72
2023/07/31 19:11:54;;;;;;;11.75;10.73;;;;;;;;;;10234097;28;20120;-72
2023/07/31 19:16:50;;;;;;;11.55;10.38;;;;;;;;;;10217282;28;20057;-72
2023/07/31 19:21:47;;;;;;;11.55;10.57;;;;;;;;;;10217592;28;20052;-72
2023/07/31 19:26:44;;;;;;;11.65;10.63;;;;;;;;;;10193269;28;20097;-72
2023/07/31 19:31:43;;;;;;;12.73;11.63;;;;;;;;;;10153660;28;20501;-72
2023/07/31 19:36:42;;;;;;;13.88;12.68;;;;;;;;;;10194269;28;20054;-72
2023/07/31 19:41:39;;;;;;;12.35;11.25;;;;;;;;;;10212933;28;20066;-72
2023/07/31 19:46:36;;;;;;;13.07;11.82;;;;;;;;;;10218877;28;20586;-72
2023/07/31 19:51:33;;;;;;;12.48;11.20;;;;;;;;;;10176396;28;20047;-72
2023/07/31 19:56:29;;;;;;;12.90;11.75;;;;;;;;;;10208087;28;20046;-72
2023/07/31 20:01:26;;;;;;;12.10;11.10;;;;;;;;;;10201004;28;20259;-72
2023/07/31 20:06:31;;;;;;;11.50;10.50;;;;;;;;;;10239535;22;20053;-72
2023/07/31 20:11:28;;;;;;;13.23;11.93;;;;;;;;;;10198343;28;20053;-72
2023/07/31 20:16:24;;;;;;;13.95;12.50;;;;;;;;;;10182981;28;20570;-72
2023/07/31 20:21:20;;;;;;;13.40;12.20;;;;;;;;;;10159249;28;20062;-72
2023/07/31 20:26:16;;;;;;;13.35;12.15;;;;;;;;;;10216157;28;20053;-72
2023/07/31 20:31:13;;;;;;;14.07;12.50;;;;;;;;;;10217327;28;20061;-72
2023/07/31 20:36:09;;;;;;;12.80;11.75;;;;;;;;;;10192063;28;20050;-72
2023/07/31 20:41:06;;;;;;;13.82;12.50;;;;;;;;;;10193336;28;20050;-72
2023/07/31 20:46:02;;;;;;;13.50;12.20;;;;;;;;;;10207098;28;20050;-73
2023/07/31 20:51:00;;;;;;;14.45;13.02;;;;;;;;;;10176004;28;20058;-72
2023/07/31 20:55:57;;;;;;;12.40;11.40;;;;;;;;;;10200114;28;20053;-72
2023/07/31 21:00:54;;;;;;;15.65;12.50;;;;;;;;;;10158232;28;20149;-73
2023/07/31 21:05:56;;;;;;;12.82;11.48;;;;;;;;;;10171654;28;20057;-72
2023/07/31 21:10:55;;;;;;;12.02;10.98;;;;;;;;;;10158094;28;20062;-72
2023/07/31 21:15:56;;;;;;;13.00;10.23;;;;;;;;;;10202515;28;20057;-72
2023/07/31 21:20:52;;;;;;;11.63;10.70;;;;;;;;;;10232518;28;20050;-72
2023/07/31 21:25:48;;;;;;;12.38;11.38;;;;;;;;;;10219802;28;20049;-72
2023/07/31 21:30:45;;;;;;;10.52;9.63;;;;;;;;;;10224230;28;20066;-72
2023/07/31 21:35:41;;;;;;;10.20;9.40;;;;;;;;;;10218086;28;20049;-73
2023/07/31 21:40:38;;;;;;;10.80;9.80;;;;;;;;;;10193719;28;20105;-72
2023/07/31 21:45:34;;;;;;;10.52;9.65;;;;;;;;;;10197529;28;20053;-73
2023/07/31 21:50:30;;;;;;;10.52;9.60;;;;;;;;;;10184187;28;20125;-73
2023/07/31 21:55:28;;;;;;;11.25;10.20;;;;;;;;;;10194077;28;20521;-72
2023/07/31 22:00:34;;;;;;;10.60;9.60;;;;;;;;;;10312150;22;20088;-73
2023/07/31 22:05:31;;;;;;;9.70;8.80;;;;;;;;;;10214785;28;20503;-73
2023/07/31 22:10:27;;;;;;;8.73;8.13;;;;;;;;;;10196056;28;20046;-72
2023/07/31 22:15:24;;;;;;;9.18;8.27;;;;;;;;;;10208589;28;20052;-72
2023/07/31 22:20:29;;;;;;;9.57;8.88;;;;;;;;;;10217539;23;20084;-72
2023/07/31 22:25:25;;;;;;;9.45;8.63;;;;;;;;;;10212402;28;20419;-72
2023/07/31 22:30:27;;;;;;;8.93;8.13;;;;;;;;;;10195368;28;20499;-72
2023/07/31 22:35:23;;;;;;;7.80;7.20;;;;;;;;;;10213965;28;20491;-73
2023/07/31 22:40:20;;;;;;;7.63;7.03;;;;;;;;;;10232299;28;20057;-73
2023/07/31 22:45:16;;;;;;;9.68;7.68;;;;;;;;;;10212218;28;20053;-72
2023/07/31 22:50:12;;;;;;;7.72;7.13;;;;;;;;;;10212822;28;20058;-72
2023/07/31 22:55:08;;;;;;;8.23;7.50;;;;;;;;;;10211352;28;20061;-73
2023/07/31 23:00:06;;;;;;;8.27;7.68;;;;;;;;;;10230835;23;20054;-73
2023/07/31 23:05:03;;;;;;;8.40;7.68;;;;;;;;;;10194191;28;20081;-73
2023/07/31 23:09:59;;;;;;;9.45;8.73;;;;;;;;;;10167378;28;20058;-73
2023/07/31 23:14:56;;;;;;;10.20;9.40;;;;;;;;;;10183610;28;20100;-72
2023/07/31 23:19:52;;;;;;;9.60;8.90;;;;;;;;;;10179515;28;20508;-73
2023/07/31 23:24:48;;;;;;;10.40;9.60;;;;;;;;;;10182104;28;20049;-73
2023/07/31 23:29:44;;;;;;;9.93;9.13;;;;;;;;;;10197889;28;20635;-73
2023/07/31 23:34:44;;;;;;;9.52;8.63;;;;;;;;;;10193911;28;20054;-73
2023/07/31 23:39:40;;;;;;;9.43;8.73;;;;;;;;;;10161480;28;20137;-73
2023/07/31 23:44:37;;;;;;;9.32;8.70;;;;;;;;;;10193344;28;20041;-72
2023/07/31 23:49:33;;;;;;;10.40;9.60;;;;;;;;;;10223349;28;20045;-72
2023/07/31 23:54:29;;;;;;;10.18;9.38;;;;;;;;;;10193364;28;20051;-73
2023/07/31 23:59:26;;;;;;;10.52;9.73;;;;;;;;;;10236696;28;20173;-73
